Time;durP1;ratioP1;P1;durP2;ratioP2;P2;SDS_P1;SDS_P2;PMS_P1;PMS_P2;Temp;Humidity;BMP_temperature;BMP_pressure;BME280_temperature;BME280_humidity;BME280_pressure;Samples;Min_cycle;Max_cycle;Signal;HPM_P1;HPM_P2
2022/03/18 00:02:08;;;;;;;21.63;3.80;;;;;;;1.20;100.00;103638.88;5048767;28;20175;-44
2022/03/18 00:04:34;;;;;;;14.82;3.22;;;;;;;1.20;100.00;103646.81;5048668;28;20539;-44
2022/03/18 00:06:59;;;;;;;17.17;3.50;;;;;;;1.23;100.00;103640.75;5049288;28;20219;-45
2022/03/18 00:09:25;;;;;;;21.60;4.68;;;;;;;1.31;100.00;103659.56;5048850;28;20207;-46
2022/03/18 00:11:50;;;;;;;18.27;4.00;;;;;;;1.32;100.00;103658.75;5049111;28;20179;-42
2022/03/18 00:14:15;;;;;;;13.52;3.50;;;;;;;1.30;100.00;103657.78;5048776;28;20576;-43
2022/03/18 00:16:41;;;;;;;19.95;4.63;;;;;;;1.27;100.00;103670.81;5050822;28;20221;-44
2022/03/18 00:19:07;;;;;;;20.92;4.22;;;;;;;1.29;100.00;103666.53;5052870;28;20554;-44
2022/03/18 00:21:34;;;;;;;20.48;3.80;;;;;;;1.19;100.00;103673.13;5052171;28;20264;-48
2022/03/18 00:24:00;;;;;;;19.88;4.57;;;;;;;1.30;100.00;103665.69;5052277;28;20566;-45
2022/03/18 00:26:25;;;;;;;20.77;4.38;;;;;;;1.41;100.00;103667.09;5052644;28;20163;-43
2022/03/18 00:28:51;;;;;;;17.40;3.85;;;;;;;1.34;100.00;103665.00;5052254;28;20209;-45
2022/03/18 00:31:16;;;;;;;22.30;4.25;;;;;;;1.29;100.00;103669.16;5052364;28;20179;-45
2022/03/18 00:33:41;;;;;;;24.25;4.72;;;;;;;1.30;100.00;103677.16;5051577;28;20689;-44
2022/03/18 00:36:07;;;;;;;19.77;4.63;;;;;;;1.33;100.00;103677.28;5052652;28;20658;-44
2022/03/18 00:38:34;;;;;;;16.95;5.35;;;;;;;1.34;100.00;103671.19;5067822;28;20190;-49
2022/03/18 00:41:00;;;;;;;26.58;4.72;;;;;;;1.26;100.00;103690.16;5052256;28;20559;-48
2022/03/18 00:43:25;;;;;;;24.95;4.95;;;;;;;1.24;100.00;103692.72;5051821;28;20276;-48
2022/03/18 00:45:51;;;;;;;20.90;4.82;;;;;;;1.32;100.00;103693.09;5051933;28;20202;-48
2022/03/18 00:53:44;;;;;;;24.10;5.45;;;;;;;1.34;100.00;103702.88;5051381;28;20202;-46
2022/03/18 00:56:09;;;;;;;29.63;5.68;;;;;;;1.29;100.00;103696.50;5051915;28;20224;-47
2022/03/18 00:58:35;;;;;;;27.85;5.95;;;;;;;1.29;100.00;103690.28;5051704;28;20168;-47
2022/03/18 01:01:00;;;;;;;30.83;6.00;;;;;;;1.38;100.00;103696.03;5051983;28;20269;-46
2022/03/18 01:03:26;;;;;;;30.05;6.63;;;;;;;1.40;100.00;103697.91;5051577;28;20226;-48
2022/03/18 01:05:52;;;;;;;24.17;6.32;;;;;;;1.56;100.00;103698.59;5051671;28;20179;-47
2022/03/18 01:08:17;;;;;;;29.75;6.85;;;;;;;1.44;100.00;103686.63;5050163;28;20749;-46
2022/03/18 01:10:44;;;;;;;23.73;5.78;;;;;;;1.31;100.00;103697.47;5051473;28;20176;-47
2022/03/18 01:13:10;;;;;;;30.63;7.13;;;;;;;1.40;100.00;103704.88;5051002;28;20288;-47
2022/03/18 01:15:36;;;;;;;38.80;6.78;;;;;;;1.27;100.00;103690.25;5051630;28;20175;-48
2022/03/18 01:18:01;;;;;;;26.95;6.05;;;;;;;1.16;100.00;103696.72;5051449;28;20229;-47
2022/03/18 01:20:27;;;;;;;31.83;6.68;;;;;;;1.24;100.00;103700.66;5051611;28;20714;-46
2022/03/18 01:22:52;;;;;;;26.63;6.60;;;;;;;1.20;100.00;103689.06;5050822;28;20395;-48
2022/03/18 01:25:18;;;;;;;18.88;5.30;;;;;;;1.34;100.00;103694.06;5050951;28;20179;-47
2022/03/18 01:27:43;;;;;;;20.85;5.38;;;;;;;1.35;100.00;103695.88;5050595;28;20199;-46
2022/03/18 01:30:09;;;;;;;20.55;5.75;;;;;;;1.27;100.00;103694.59;5051256;28;20212;-49
2022/03/18 01:32:35;;;;;;;23.83;6.57;;;;;;;1.14;100.00;103711.63;5050897;28;20543;-46
2022/03/18 01:35:01;;;;;;;20.67;5.55;;;;;;;1.07;100.00;103713.03;5050941;28;20199;-47
2022/03/18 01:37:26;;;;;;;19.88;5.65;;;;;;;1.12;100.00;103706.28;5051264;28;20178;-46
2022/03/18 01:39:52;;;;;;;26.38;6.32;;;;;;;1.02;100.00;103710.19;5051124;28;20193;-46
2022/03/18 01:42:17;;;;;;;26.13;6.30;;;;;;;0.85;100.00;103712.84;5050305;28;20179;-48
2022/03/18 01:44:44;;;;;;;27.98;6.53;;;;;;;0.89;100.00;103710.44;5051020;28;20195;-47
2022/03/18 01:47:10;;;;;;;21.50;6.65;;;;;;;0.90;100.00;103714.00;5051133;28;20179;-47
2022/03/18 01:49:37;;;;;;;22.55;6.63;;;;;;;0.82;100.00;103714.53;5050072;28;20199;-47
2022/03/18 01:52:08;;;;;;;21.20;6.35;;;;;;;0.71;100.00;103726.28;5050945;28;20646;-47
2022/03/18 01:54:49;;;;;;;17.05;5.38;;;;;;;0.60;100.00;103722.22;5049939;28;20217;-48
2022/03/18 01:57:23;;;;;;;17.23;5.05;;;;;;;0.52;100.00;103731.47;5050951;28;20218;-47
2022/03/18 01:59:50;;;;;;;16.45;5.43;;;;;;;0.36;100.00;103735.09;5050859;28;20199;-46
2022/03/18 02:02:17;;;;;;;18.98;5.97;;;;;;;0.37;100.00;103727.25;5050226;28;20180;-46
2022/03/18 02:04:43;;;;;;;17.88;5.97;;;;;;;0.46;100.00;103733.81;5050722;28;20190;-49
2022/03/18 02:07:09;;;;;;;16.42;5.90;;;;;;;0.40;100.00;103735.31;5050471;28;20221;-48
2022/03/18 02:09:38;;;;;;;13.32;5.90;;;;;;;0.24;100.00;103737.09;5050624;28;20223;-47
2022/03/18 02:12:05;;;;;;;20.77;6.85;;;;;;;0.24;100.00;103731.81;5050536;28;20645;-48
2022/03/18 02:14:37;;;;;;;17.05;5.53;;;;;;;0.17;100.00;103730.59;5050117;28;20214;-49
2022/03/18 02:17:05;;;;;;;15.82;5.82;;;;;;;0.06;100.00;103732.69;5050665;28;20294;-49
2022/03/18 02:19:31;;;;;;;16.00;6.65;;;;;;;0.07;100.00;103736.25;5050024;28;20186;-48
2022/03/18 02:21:57;;;;;;;16.27;6.63;;;;;;;-0.08;100.00;103747.78;5050272;28;20529;-48
2022/03/18 02:24:23;;;;;;;13.23;6.75;;;;;;;0.15;100.00;103746.38;5036142;28;20211;-47
2022/03/18 02:26:53;;;;;;;10.32;6.22;;;;;;;-0.11;100.00;103742.38;5049545;28;20227;-48
2022/03/18 02:29:21;;;;;;;11.52;6.45;;;;;;;0.09;100.00;103739.84;5065565;28;20245;-46
2022/03/18 02:31:46;;;;;;;17.30;7.65;;;;;;;-0.01;100.00;103749.91;5043528;28;20202;-46
2022/03/18 02:34:12;;;;;;;13.55;6.13;;;;;;;0.00;100.00;103756.09;5045541;28;20555;-47
2022/03/18 02:36:38;;;;;;;15.20;6.68;;;;;;;-0.05;100.00;103761.09;5049350;28;20320;-46
2022/03/18 02:39:04;;;;;;;10.32;6.43;;;;;;;-0.03;100.00;103758.56;5050182;28;20168;-46
2022/03/18 02:41:29;;;;;;;15.30;6.35;;;;;;;-0.10;100.00;103754.69;5048380;28;20226;-48
2022/03/18 02:43:55;;;;;;;14.50;6.78;;;;;;;-0.21;100.00;103769.94;5048843;28;20199;-47
2022/03/18 02:46:23;;;;;;;17.80;6.65;;;;;;;-0.33;100.00;103766.66;5049992;28;20187;-45
2022/03/18 02:48:49;;;;;;;15.75;6.68;;;;;;;-0.14;100.00;103771.16;5048742;28;20199;-48
2022/03/18 02:51:14;;;;;;;11.38;6.50;;;;;;;-0.18;100.00;103776.19;5050225;28;20711;-47
2022/03/18 02:53:41;;;;;;;11.13;7.22;;;;;;;-0.08;100.00;103782.03;5049174;28;20274;-48
2022/03/18 02:56:07;;;;;;;12.13;6.40;;;;;;;-0.15;100.00;103778.97;5048407;28;20174;-48
2022/03/18 02:58:35;;;;;;;13.90;6.95;;;;;;;-0.27;100.00;103773.97;5049760;28;20205;-45
2022/03/18 03:01:02;;;;;;;12.88;6.63;;;;;;;-0.18;100.00;103785.00;5049744;28;20178;-49
2022/03/18 03:03:28;;;;;;;14.30;7.32;;;;;;;-0.18;100.00;103785.00;5047777;28;20261;-46
2022/03/18 03:08:37;;;;;;;11.38;6.47;;;;;;;-0.32;100.00;103800.06;5049778;28;20876;-45
2022/03/18 03:11:02;;;;;;;15.90;6.63;;;;;;;-0.22;100.00;103796.19;5049712;28;20234;-48
2022/03/18 03:13:28;;;;;;;11.77;7.00;;;;;;;-0.20;100.00;103794.53;5049035;28;20634;-45
2022/03/18 03:15:53;;;;;;;13.57;7.30;;;;;;;-0.28;100.00;103787.97;5049452;28;20258;-46
2022/03/18 03:18:19;;;;;;;13.00;7.00;;;;;;;-0.25;100.00;103783.75;5049822;28;20202;-48
2022/03/18 03:20:44;;;;;;;10.10;6.65;;;;;;;-0.26;100.00;103803.03;5049135;28;20211;-48
2022/03/18 03:23:10;;;;;;;16.73;7.40;;;;;;;-0.32;100.00;103810.59;5049442;28;20282;-49
2022/03/18 03:25:35;;;;;;;11.52;7.55;;;;;;;-0.30;100.00;103808.06;5049504;28;20191;-44
2022/03/18 03:28:01;;;;;;;12.38;6.65;;;;;;;-0.28;100.00;103811.69;5049833;28;20203;-43
2022/03/18 03:30:26;;;;;;;13.95;7.15;;;;;;;-0.31;100.00;103816.78;5049706;28;20171;-41
2022/03/18 03:32:52;;;;;;;12.70;7.05;;;;;;;-0.26;100.00;103826.75;5049360;28;20255;-44
2022/03/18 03:35:18;;;;;;;13.88;7.55;;;;;;;-0.32;100.00;103825.50;5049811;28;20179;-42
2022/03/18 03:37:44;;;;;;;11.00;6.63;;;;;;;-0.26;100.00;103836.41;5049602;28;20170;-42
2022/03/18 03:40:13;;;;;;;11.30;7.13;;;;;;;-0.21;100.00;103834.91;5049481;28;20175;-44
2022/03/18 03:42:40;;;;;;;13.00;7.45;;;;;;;-0.28;100.00;103827.50;5048175;28;20261;-41
2022/03/18 03:45:06;;;;;;;10.77;7.60;;;;;;;-0.34;100.00;103832.44;5048926;28;20206;-44
2022/03/18 03:47:31;;;;;;;14.52;7.05;;;;;;;-0.50;100.00;103825.41;5048763;28;20172;-44
2022/03/18 03:49:57;;;;;;;11.65;6.53;;;;;;;-0.47;100.00;103831.72;5048811;28;20263;-44
2022/03/18 03:52:22;;;;;;;10.13;6.55;;;;;;;-0.43;100.00;103841.63;5052593;28;20748;-42
2022/03/18 03:54:47;;;;;;;14.15;6.70;;;;;;;-0.43;100.00;103841.63;5053052;28;20198;-44
2022/03/18 03:57:13;;;;;;;11.07;7.32;;;;;;;-0.42;100.00;103839.88;5053295;28;20178;-43
2022/03/18 03:59:38;;;;;;;15.50;7.55;;;;;;;-0.43;100.00;103835.47;5052941;28;20265;-43
2022/03/18 04:02:04;;;;;;;12.40;8.02;;;;;;;-0.44;100.00;103836.25;5052779;28;20173;-41
2022/03/18 04:04:29;;;;;;;12.23;8.02;;;;;;;-0.32;100.00;103844.84;5052800;28;20191;-44
2022/03/18 04:06:55;;;;;;;14.52;8.95;;;;;;;-0.29;100.00;103850.28;5052950;28;20187;-42
2022/03/18 04:09:20;;;;;;;13.82;8.05;;;;;;;-0.30;100.00;103850.22;5052966;28;20207;-42
2022/03/18 04:11:46;;;;;;;15.88;7.97;;;;;;;-0.26;100.00;103852.22;5052040;28;20246;-42
2022/03/18 04:14:11;;;;;;;15.65;9.32;;;;;;;-0.19;100.00;103856.97;5052097;28;20202;-43
2022/03/18 04:16:37;;;;;;;20.65;9.15;;;;;;;-0.30;100.00;103855.50;5052840;28;20642;-43
2022/03/18 04:19:05;;;;;;;16.85;9.23;;;;;;;-0.29;100.00;103862.56;5052555;28;20175;-42
2022/03/18 04:21:30;;;;;;;19.25;9.57;;;;;;;-0.46;100.00;103858.97;5052693;28;20222;-42
2022/03/18 04:23:56;;;;;;;15.38;9.38;;;;;;;-0.28;100.00;103860.00;5049676;28;20219;-41
2022/03/18 04:26:21;;;;;;;14.93;9.70;;;;;;;-0.30;100.00;103877.47;5050883;28;20191;-43
2022/03/18 04:28:47;;;;;;;15.45;9.23;;;;;;;-0.42;100.00;103869.78;5052505;28;20238;-43
2022/03/18 04:31:12;;;;;;;19.25;9.68;;;;;;;-0.44;100.00;103881.97;5045979;28;20172;-42
2022/03/18 04:33:37;;;;;;;16.90;9.60;;;;;;;-0.39;100.00;103886.56;5044244;28;20202;-43
2022/03/18 04:36:03;;;;;;;19.23;9.77;;;;;;;-0.48;100.00;103879.03;5052618;28;20584;-43
2022/03/18 04:38:29;;;;;;;15.27;9.68;;;;;;;-0.42;100.00;103893.50;5051042;28;20183;-42
2022/03/18 04:40:54;;;;;;;18.10;11.07;;;;;;;-0.43;100.00;103894.31;5052441;28;20167;-42
2022/03/18 04:43:20;;;;;;;20.58;9.82;;;;;;;-0.44;100.00;103907.38;5051949;28;20198;-41
2022/03/18 04:45:45;;;;;;;19.15;10.88;;;;;;;-0.47;100.00;103913.38;5052272;28;20215;-44
2022/03/18 04:48:11;;;;;;;19.15;10.68;;;;;;;-0.45;100.00;103914.38;5052206;28;20211;-43
2022/03/18 04:50:36;;;;;;;15.80;9.85;;;;;;;-0.46;100.00;103911.66;5052068;28;20168;-43
2022/03/18 04:53:02;;;;;;;19.98;10.40;;;;;;;-0.46;100.00;103912.59;5051791;28;20191;-42
2022/03/18 04:55:27;;;;;;;14.73;10.10;;;;;;;-0.60;100.00;103912.59;5051989;28;20236;-42
2022/03/18 04:57:52;;;;;;;20.08;10.90;;;;;;;-0.75;100.00;103917.88;5051989;28;20175;-43
2022/03/18 05:00:20;;;;;;;18.58;11.18;;;;;;;-0.66;100.00;103929.88;5052168;28;20630;-42
2022/03/18 05:02:46;;;;;;;16.67;10.80;;;;;;;-0.53;100.00;103930.56;5051244;28;20167;-44
2022/03/18 05:05:11;;;;;;;21.98;11.60;;;;;;;-0.59;100.00;103930.19;5051650;28;20255;-43
2022/03/18 05:07:40;;;;;;;14.45;10.23;;;;;;;-0.56;100.00;103948.84;5051297;28;20178;-41
2022/03/18 05:10:07;;;;;;;17.70;10.70;;;;;;;-0.52;100.00;103940.28;5051687;28;20250;-43
2022/03/18 05:12:33;;;;;;;21.63;11.40;;;;;;;-0.61;100.00;103951.19;5051397;28;20290;-43
2022/03/18 05:14:59;;;;;;;15.73;11.32;;;;;;;-0.73;100.00;103961.00;5049765;28;20226;-44
2022/03/18 05:17:25;;;;;;;16.10;10.20;;;;;;;-0.64;100.00;103965.06;5051368;28;20531;-42
2022/03/18 05:19:50;;;;;;;12.65;9.88;;;;;;;-0.62;100.00;103970.44;5053125;28;20242;-46
2022/03/18 05:22:16;;;;;;;12.98;9.63;;;;;;;-0.68;100.00;103967.44;5050659;28;20168;-44
2022/03/18 05:24:41;;;;;;;16.80;10.80;;;;;;;-0.75;100.00;103965.28;5050896;28;20194;-47
2022/03/18 05:27:07;;;;;;;18.60;11.20;;;;;;;-0.81;100.00;103959.63;5051004;28;20221;-45
2022/03/18 05:29:32;;;;;;;19.65;10.60;;;;;;;-0.82;100.00;103961.38;5051046;28;20199;-48
2022/03/18 05:31:59;;;;;;;19.25;11.93;;;;;;;-0.74;100.00;103961.84;5050763;28;20214;-46
2022/03/18 05:34:24;;;;;;;20.25;11.15;;;;;;;-0.83;100.00;103949.03;5050419;28;20722;-48
2022/03/18 05:36:50;;;;;;;20.23;12.65;;;;;;;-0.75;100.00;103962.63;5050964;28;20275;-47
2022/03/18 05:39:15;;;;;;;21.13;11.82;;;;;;;-0.64;100.00;103967.69;5050736;28;20179;-46
2022/03/18 05:41:43;;;;;;;18.48;12.38;;;;;;;-0.58;100.00;103969.81;5050701;28;20191;-47
2022/03/18 05:44:09;;;;;;;20.02;12.05;;;;;;;-0.49;100.00;103978.22;5050445;28;20199;-47
2022/03/18 05:46:34;;;;;;;24.83;13.52;;;;;;;-0.48;100.00;103977.44;5050689;28;20673;-47
2022/03/18 05:49:00;;;;;;;17.45;11.63;;;;;;;-0.49;100.00;103983.50;5050529;28;20203;-45
2022/03/18 05:51:27;;;;;;;19.73;11.95;;;;;;;-0.39;100.00;103984.03;5050215;28;20167;-45
2022/03/18 05:53:53;;;;;;;24.90;13.50;;;;;;;-0.34;100.00;103985.22;5050161;28;20226;-46
2022/03/18 05:59:06;;;;;;;20.73;12.30;;;;;;;-0.22;100.00;104006.97;5049981;28;20167;-46
2022/03/18 06:01:31;;;;;;;20.98;13.10;;;;;;;-0.30;100.00;104009.19;5050351;28;20198;-45
2022/03/18 06:03:57;;;;;;;18.65;12.27;;;;;;;-0.25;100.00;104001.53;5049624;28;20716;-46
2022/03/18 06:06:23;;;;;;;28.65;13.45;;;;;;;-0.05;100.00;103994.78;5050422;28;20272;-48
2022/03/18 06:11:48;;;;;;;32.05;17.27;;;;;;;0.31;100.00;104002.94;5050404;28;20180;-47
2022/03/18 06:14:14;;;;;;;35.65;17.02;;;;;;;0.45;100.00;104009.88;5049787;28;20178;-46
2022/03/18 06:16:39;;;;;;;35.03;19.50;;;;;;;0.76;100.00;104022.09;5050141;28;20568;-48
2022/03/18 06:19:05;;;;;;;35.17;18.75;;;;;;;0.86;100.00;104013.84;5050359;28;20183;-47
2022/03/18 06:21:30;;;;;;;35.63;18.92;;;;;;;1.02;100.00;104018.19;5050282;28;20625;-45
2022/03/18 06:23:56;;;;;;;36.20;18.88;;;;;;;1.04;100.00;104021.81;5049952;28;20767;-50
2022/03/18 06:26:22;;;;;;;39.05;18.67;;;;;;;1.17;100.00;104024.28;5050454;28;20179;-49
2022/03/18 06:28:49;;;;;;;27.40;16.67;;;;;;;1.26;100.00;104034.41;5050056;28;20205;-47
2022/03/18 06:31:15;;;;;;;28.65;16.77;;;;;;;1.22;100.00;104030.72;5050104;28;20182;-48
2022/03/18 06:33:44;;;;;;;30.10;17.48;;;;;;;1.24;100.00;104043.97;5049892;28;20191;-48
2022/03/18 06:36:13;;;;;;;25.85;18.38;;;;;;;1.12;100.00;104038.97;5050096;28;20182;-47
2022/03/18 06:38:38;;;;;;;33.92;19.20;;;;;;;0.93;100.00;104044.13;5050324;28;20172;-45
2022/03/18 06:41:05;;;;;;;33.22;17.58;;;;;;;0.92;100.00;104050.19;5049693;28;20261;-45
2022/03/18 06:43:30;;;;;;;31.80;18.88;;;;;;;1.00;100.00;104049.78;5049984;28;20248;-49
2022/03/18 06:45:56;;;;;;;33.80;18.88;;;;;;;1.18;100.00;104057.78;5047919;28;20278;-45
2022/03/18 06:48:21;;;;;;;30.63;18.20;;;;;;;1.16;100.00;104051.53;5046850;28;20207;-43
2022/03/18 06:50:47;;;;;;;28.48;17.88;;;;;;;1.55;100.00;104054.44;5045385;28;20232;-43
2022/03/18 06:53:12;;;;;;;30.77;17.80;;;;;;;1.91;100.00;104061.47;5048666;28;20544;-46
2022/03/18 06:55:38;;;;;;;27.50;18.77;;;;;;;2.15;100.00;104067.97;5048096;28;20262;-47
2022/03/18 06:58:03;;;;;;;24.27;18.23;;;;;;;2.30;100.00;104074.84;5046782;28;20232;-44
2022/03/18 07:00:29;;;;;;;23.52;16.90;;;;;;;2.39;100.00;104067.34;5049205;28;20203;-45
2022/03/18 07:02:54;;;;;;;26.48;17.35;;;;;;;2.71;100.00;104076.78;5049188;28;20649;-47
2022/03/18 07:05:20;;;;;;;26.20;17.52;;;;;;;2.96;100.00;104072.66;5049521;28;20176;-46
2022/03/18 07:07:45;;;;;;;27.58;18.38;;;;;;;3.29;100.00;104071.50;5049665;28;20238;-43
2022/03/18 07:10:13;;;;;;;29.05;17.92;;;;;;;3.51;100.00;104077.75;5049840;28;20300;-49
2022/03/18 07:12:38;;;;;;;28.70;17.60;;;;;;;3.64;100.00;104081.81;5048289;28;20182;-47
2022/03/18 07:15:05;;;;;;;23.23;15.15;;;;;;;3.78;100.00;104075.34;5048868;28;20623;-43
2022/03/18 07:20:15;;;;;;;22.75;13.90;;;;;;;4.02;100.00;104083.41;5049361;28;20255;-43
2022/03/18 07:22:40;;;;;;;21.75;12.77;;;;;;;3.64;100.00;104071.22;5048385;28;20224;-43
2022/03/18 07:25:06;;;;;;;19.15;12.75;;;;;;;3.61;100.00;104079.06;5048398;28;20245;-44
2022/03/18 07:27:32;;;;;;;22.52;12.35;;;;;;;3.41;100.00;104072.88;5053319;28;20203;-44
2022/03/18 07:29:57;;;;;;;17.80;12.30;;;;;;;3.33;100.00;104071.66;5068770;28;20210;-48
2022/03/18 07:32:23;;;;;;;20.73;12.90;;;;;;;3.46;100.00;104077.53;5053589;28;20174;-42
2022/03/18 07:34:48;;;;;;;17.58;13.07;;;;;;;3.79;100.00;104070.97;5053583;28;20195;-43
2022/03/18 07:37:14;;;;;;;18.13;12.63;;;;;;;4.07;100.00;104076.56;5051842;28;20527;-44
2022/03/18 07:39:39;;;;;;;19.15;13.52;;;;;;;4.36;100.00;104071.53;5052098;28;20648;-42
2022/03/18 07:42:05;;;;;;;20.48;12.82;;;;;;;4.90;100.00;104087.81;5053095;28;20667;-43
2022/03/18 07:44:31;;;;;;;18.60;12.40;;;;;;;5.25;100.00;104104.16;5052680;28;20199;-43
2022/03/18 07:46:56;;;;;;;21.50;12.55;;;;;;;5.29;98.42;104102.50;5053315;28;20183;-44
2022/03/18 07:49:22;;;;;;;15.05;11.68;;;;;;;5.51;97.49;104109.50;5053018;28;20264;-42
2022/03/18 07:51:48;;;;;;;16.08;12.02;;;;;;;5.77;96.10;104103.34;5051613;28;20278;-45
2022/03/18 07:54:13;;;;;;;17.60;10.70;;;;;;;5.67;94.69;104122.50;5053506;28;20277;-44
2022/03/18 07:56:39;;;;;;;16.45;10.52;;;;;;;5.53;95.25;104135.31;5052656;28;20646;-45
2022/03/18 07:59:04;;;;;;;18.75;11.20;;;;;;;6.15;94.74;104133.06;5053079;28;20171;-44
2022/03/18 08:01:29;;;;;;;13.18;9.80;;;;;;;6.44;93.41;104132.19;5052870;28;20629;-43
2022/03/18 08:03:55;;;;;;;17.02;9.82;;;;;;;6.38;91.48;104139.16;5052445;28;20579;-44
2022/03/18 08:06:21;;;;;;;15.88;9.73;;;;;;;6.40;91.36;104137.41;5051498;28;20171;-42
2022/03/18 08:08:46;;;;;;;18.88;10.65;;;;;;;6.57;90.60;104153.03;5052848;28;20199;-45
2022/03/18 08:11:12;;;;;;;21.33;10.48;;;;;;;6.83;90.85;104164.53;5053627;28;20564;-44
2022/03/18 08:13:38;;;;;;;18.95;10.55;;;;;;;7.15;89.43;104164.59;5052315;28;20239;-45
2022/03/18 08:16:04;;;;;;;15.90;9.95;;;;;;;7.06;88.20;104156.31;5052826;28;20180;-48
2022/03/18 08:18:29;;;;;;;15.98;10.20;;;;;;;6.77;88.87;104164.31;5052939;28;20216;-47
2022/03/18 08:20:55;;;;;;;20.05;10.25;;;;;;;6.73;89.85;104152.66;5052341;28;20631;-42
2022/03/18 08:23:22;;;;;;;20.13;11.57;;;;;;;6.47;90.26;104156.25;5052215;28;20235;-44
2022/03/18 08:25:47;;;;;;;16.67;11.55;;;;;;;7.07;90.14;104155.47;5052358;28;20371;-49
2022/03/18 08:28:13;;;;;;;21.58;11.40;;;;;;;7.37;89.85;104160.81;5052467;28;20808;-44
2022/03/18 08:30:39;;;;;;;20.63;11.15;;;;;;;7.27;88.70;104159.63;5052495;28;20609;-44
2022/03/18 08:33:05;;;;;;;25.35;11.93;;;;;;;7.14;88.71;104165.47;5051797;28;20183;-44
2022/03/18 08:35:31;;;;;;;23.55;11.70;;;;;;;7.44;87.88;104168.13;5052681;28;20676;-43
2022/03/18 08:37:57;;;;;;;21.85;11.70;;;;;;;7.74;88.10;104172.47;5052086;28;20262;-42
2022/03/18 08:40:28;;;;;;;23.10;11.65;;;;;;;7.91;86.97;104173.84;5051863;28;20164;-44
2022/03/18 08:42:55;;;;;;;22.35;10.52;;;;;;;8.41;86.19;104158.25;5052022;28;20557;-45
2022/03/18 08:45:20;;;;;;;26.55;10.52;;;;;;;8.51;83.73;104164.72;5052264;28;20328;-42
2022/03/18 08:47:46;;;;;;;20.52;10.13;;;;;;;8.82;83.73;104182.38;5052235;28;20175;-42
2022/03/18 08:50:12;;;;;;;20.88;9.85;;;;;;;8.60;83.43;104180.97;5052199;28;20159;-42
2022/03/18 08:52:38;;;;;;;19.88;11.13;;;;;;;8.17;84.61;104193.22;5051663;28;20278;-43
2022/03/18 08:55:05;;;;;;;20.35;10.45;;;;;;;8.60;83.89;104183.66;5051873;28;20270;-43
2022/03/18 08:57:33;;;;;;;21.48;10.32;;;;;;;8.62;83.63;104189.03;5051767;28;20182;-42
2022/03/18 08:59:59;;;;;;;20.98;10.43;;;;;;;8.69;83.30;104190.09;5052105;28;20493;-44
2022/03/18 09:02:24;;;;;;;19.73;10.00;;;;;;;9.21;82.64;104204.66;5051378;28;20163;-42
2022/03/18 09:04:50;;;;;;;21.77;10.30;;;;;;;8.81;82.84;104207.34;5051703;28;20203;-43
2022/03/18 09:07:17;;;;;;;25.00;10.48;;;;;;;9.19;83.00;104209.97;5050532;28;20182;-43
2022/03/18 09:09:42;;;;;;;26.88;10.57;;;;;;;9.38;83.01;104207.66;5051681;28;20208;-44
2022/03/18 09:12:08;;;;;;;19.27;9.38;;;;;;;9.24;82.10;104202.03;5051613;28;20696;-45
2022/03/18 09:14:33;;;;;;;22.00;9.57;;;;;;;9.34;82.40;104217.41;5051282;28;20278;-48
2022/03/18 09:16:59;;;;;;;20.75;9.55;;;;;;;9.63;80.91;104218.00;5051490;28;20179;-42
2022/03/18 09:19:25;;;;;;;17.80;9.00;;;;;;;9.72;80.62;104227.13;5051615;28;20301;-46
2022/03/18 09:21:50;;;;;;;18.75;9.07;;;;;;;9.60;80.48;104222.38;5051715;28;20636;-43
2022/03/18 09:24:16;;;;;;;20.67;9.88;;;;;;;10.01;79.82;104203.56;5051089;28;20620;-44
2022/03/18 09:26:42;;;;;;;20.05;9.45;;;;;;;10.00;79.45;104212.47;5051486;28;20422;-43
2022/03/18 09:29:07;;;;;;;24.45;9.77;;;;;;;9.27;80.79;104220.81;5051347;28;20257;-42
2022/03/18 09:31:33;;;;;;;23.08;9.23;;;;;;;9.59;81.00;104213.47;5052024;28;20571;-44
2022/03/18 09:33:58;;;;;;;24.58;9.70;;;;;;;9.38;81.21;104223.72;5050427;28;20674;-45
2022/03/18 09:36:24;;;;;;;23.35;9.52;;;;;;;9.96;82.51;104229.38;5051774;28;20180;-44
2022/03/18 09:38:50;;;;;;;17.45;9.77;;;;;;;10.28;80.40;104238.91;5051610;28;20203;-40
2022/03/18 09:41:17;;;;;;;23.80;9.27;;;;;;;10.26;79.01;104243.31;5051174;28;20179;-43
2022/03/18 09:43:43;;;;;;;15.95;8.55;;;;;;;10.34;79.64;104240.81;5051068;28;20272;-42
2022/03/18 09:46:11;;;;;;;16.92;8.52;;;;;;;10.30;78.84;104236.28;5051342;28;20258;-45
2022/03/18 09:48:37;;;;;;;18.90;8.32;;;;;;;10.57;77.98;104230.47;5050533;28;20210;-41
2022/03/18 09:51:04;;;;;;;18.30;8.73;;;;;;;10.23;78.97;104227.22;5049754;28;20174;-46
2022/03/18 09:53:29;;;;;;;17.75;8.50;;;;;;;10.37;79.93;104237.28;5050676;28;20194;-50
2022/03/18 09:55:55;;;;;;;23.13;8.80;;;;;;;10.33;78.94;104243.47;5051212;28;20167;-43
2022/03/18 09:58:22;;;;;;;17.73;8.63;;;;;;;10.10;79.21;104250.19;5049502;28;20218;-43
2022/03/18 10:00:50;;;;;;;16.40;8.20;;;;;;;10.23;79.67;104254.00;5050781;28;20163;-46
2022/03/18 10:03:18;;;;;;;21.85;8.57;;;;;;;10.35;79.98;104257.81;5049803;28;20201;-44
2022/03/18 10:05:57;;;;;;;20.73;8.55;;;;;;;10.66;79.14;104276.22;5050397;28;20237;-41
2022/03/18 10:08:23;;;;;;;20.67;8.70;;;;;;;11.14;76.96;104271.59;5056535;28;20616;-44
2022/03/18 10:10:49;;;;;;;23.83;9.07;;;;;;;10.91;76.39;104282.91;5062691;28;20173;-43
2022/03/18 10:13:16;;;;;;;23.25;9.05;;;;;;;10.47;77.79;104280.38;5050596;28;20609;-45
2022/03/18 10:15:43;;;;;;;20.65;9.23;;;;;;;10.65;78.36;104268.16;5050696;28;20183;-41
2022/03/18 10:18:13;;;;;;;20.33;8.27;;;;;;;10.92;77.46;104262.31;5050563;28;20238;-43
2022/03/18 10:20:41;;;;;;;16.95;8.23;;;;;;;10.49;77.46;104253.56;5050595;28;20260;-47
2022/03/18 10:23:15;;;;;;;25.45;8.73;;;;;;;10.23;79.30;104264.72;5050180;28;20195;-45
2022/03/18 10:25:56;;;;;;;20.30;9.05;;;;;;;10.57;80.17;104262.66;5050499;28;20186;-46
2022/03/18 10:28:37;;;;;;;21.60;8.65;;;;;;;10.84;79.42;104267.56;5050841;28;20176;-45
2022/03/18 10:31:11;;;;;;;18.05;8.07;;;;;;;11.22;78.55;104258.31;5050240;28;20164;-45
2022/03/18 10:39:39;;;;;;;19.70;7.88;;;;;;;10.68;80.08;104271.78;5050452;28;20171;-43
2022/03/18 10:42:09;;;;;;;22.00;8.50;;;;;;;10.97;79.06;104282.06;5050243;28;20171;-44
2022/03/18 10:44:59;;;;;;;22.30;8.73;;;;;;;10.98;79.49;104274.94;5050167;28;20199;-43
2022/03/18 10:47:35;;;;;;;16.55;8.15;;;;;;;11.16;77.61;104280.59;5050125;28;20168;-46
2022/03/18 10:50:10;;;;;;;25.23;8.93;;;;;;;11.10;78.19;104292.13;5050104;28;20559;-45
2022/03/18 10:52:36;;;;;;;20.83;7.93;;;;;;;11.35;77.54;104287.13;5049914;28;20178;-48
2022/03/18 10:55:41;;;;;;;18.67;7.72;;;;;;;10.91;77.11;104281.97;5049738;28;20199;-46
2022/03/18 10:58:15;;;;;;;20.55;7.30;;;;;;;11.65;77.00;104283.03;5027739;28;20774;-44
2022/03/18 11:00:51;;;;;;;24.42;8.32;;;;;;;11.74;76.20;104289.44;5047204;28;20645;-44
2022/03/18 11:03:17;;;;;;;16.27;6.88;;;;;;;11.51;75.25;104289.13;5049760;28;20203;-45
2022/03/18 11:05:46;;;;;;;16.38;7.70;;;;;;;11.12;76.11;104293.03;5050065;28;20171;-44
2022/03/18 11:08:13;;;;;;;21.75;8.52;;;;;;;10.93;77.22;104307.97;5050008;28;20191;-45
2022/03/18 11:13:39;;;;;;;17.23;8.43;;;;;;;11.28;77.29;104304.00;5050015;28;20199;-44
2022/03/18 11:16:05;;;;;;;19.95;8.43;;;;;;;11.12;77.19;104309.13;5049923;28;20179;-43
2022/03/18 11:18:31;;;;;;;21.63;7.93;;;;;;;11.69;75.96;104304.56;5048432;28;20175;-43
2022/03/18 11:21:00;;;;;;;22.35;7.78;;;;;;;11.24;75.50;104302.16;5049925;28;20171;-45
2022/03/18 11:23:26;;;;;;;19.13;8.10;;;;;;;11.02;76.05;104304.53;5049666;28;20250;-43
2022/03/18 11:25:54;;;;;;;25.00;7.93;;;;;;;11.37;77.16;104297.88;5048373;28;20558;-44
2022/03/18 11:28:21;;;;;;;20.42;8.05;;;;;;;10.95;76.82;104304.41;5049608;28;20195;-43
2022/03/18 11:30:48;;;;;;;17.77;7.00;;;;;;;11.52;76.84;104311.50;5049559;28;20221;-43
2022/03/18 11:33:13;;;;;;;22.02;7.88;;;;;;;11.33;76.23;104323.78;5049870;28;20209;-44
2022/03/18 11:35:48;;;;;;;20.95;7.53;;;;;;;11.37;76.08;104320.28;5050395;28;20545;-45